Time;durP1;ratioP1;P1;durP2;ratioP2;P2;SDS_P1;SDS_P2;PMS_P1;PMS_P2;Temp;Humidity;BMP_temperature;BMP_pressure;BME280_temperature;BME280_humidity;BME280_pressure;Samples;Min_cycle;Max_cycle;Signal;HPM_P1;HPM_P2
2023/06/10 00:04:52;;;;;;;43.55;28.42;;;11.60;99.90;;;;;;21069032;28;20392;-48
2023/06/10 00:14:54;;;;;;;36.80;23.77;;;11.60;99.90;;;;;;21065477;28;20408;-45
2023/06/10 00:24:58;;;;;;;21.35;16.30;;;11.80;99.90;;;;;;21063742;28;20066;-54
2023/06/10 00:35:00;;;;;;;15.25;11.13;;;12.40;99.90;;;;;;21066195;28;20052;-51
2023/06/10 00:45:02;;;;;;;25.17;19.42;;;13.10;99.90;;;;;;21066399;28;20039;-45
2023/06/10 00:55:05;;;;;;;44.88;30.55;;;13.30;99.90;;;;;;21047975;28;20450;-43
2023/06/10 01:05:08;;;;;;;82.15;49.40;;;13.40;99.90;;;;;;21065641;28;20027;-49
2023/06/10 01:15:10;;;;;;;92.28;52.75;;;13.40;99.90;;;;;;21046814;28;20036;-43
2023/06/10 01:25:13;;;;;;;150.27;55.97;;;13.50;99.90;;;;;;21073198;28;20039;-48
2023/06/10 01:35:16;;;;;;;87.47;48.72;;;13.50;99.90;;;;;;21081678;28;20048;-51
2023/06/10 01:45:18;;;;;;;89.85;49.00;;;13.50;99.90;;;;;;21079782;28;20054;-49
2023/06/10 01:55:19;;;;;;;85.22;50.25;;;13.50;99.90;;;;;;21078864;28;20032;-49
2023/06/10 02:05:21;;;;;;;67.30;40.22;;;13.60;99.90;;;;;;21078942;28;20338;-54
2023/06/10 02:15:24;;;;;;;67.53;39.72;;;13.40;99.90;;;;;;21077425;28;20431;-44
2023/06/10 02:25:26;;;;;;;76.03;42.78;;;13.00;99.90;;;;;;21076625;28;20540;-49
2023/06/10 02:35:27;;;;;;;66.00;37.55;;;12.70;99.90;;;;;;21074946;28;20493;-48
2023/06/10 02:45:30;;;;;;;65.18;38.75;;;12.60;99.90;;;;;;21056956;28;20101;-49
2023/06/10 02:55:35;;;;;;;73.18;39.67;;;12.50;99.90;;;;;;21055968;28;20036;-49
2023/06/10 03:05:41;;;;;;;55.30;34.33;;;12.40;99.90;;;;;;21055678;28;20088;-51
2023/06/10 03:15:45;;;;;;;57.60;35.55;;;12.50;99.90;;;;;;21054576;28;20028;-50
2023/06/10 03:25:52;;;;;;;58.45;34.25;;;12.50;99.90;;;;;;21053618;28;20087;-48
2023/06/10 03:35:55;;;;;;;63.22;36.38;;;12.50;99.90;;;;;;21052813;28;20052;-53
2023/06/10 03:45:59;;;;;;;61.83;36.53;;;12.50;99.90;;;;;;21052207;28;20036;-48
2023/06/10 03:56:01;;;;;;;64.55;37.17;;;12.40;99.90;;;;;;21069732;28;20051;-49
2023/06/10 04:06:04;;;;;;;56.97;35.03;;;12.30;99.90;;;;;;21051151;28;20047;-52
2023/06/10 04:16:06;;;;;;;50.30;31.63;;;12.50;99.90;;;;;;21068288;28;20055;-51
2023/06/10 04:26:10;;;;;;;54.33;33.20;;;12.80;99.90;;;;;;21049306;28;20027;-49
2023/06/10 04:36:14;;;;;;;55.55;35.75;;;13.10;99.90;;;;;;21063360;28;20040;-49
2023/06/10 04:46:16;;;;;;;55.35;37.72;;;13.40;99.90;;;;;;21048039;28;20082;-51
2023/06/10 04:56:20;;;;;;;52.05;34.88;;;13.70;99.90;;;;;;21051365;28;20040;-51
2023/06/10 05:06:21;;;;;;;60.40;37.83;;;13.90;99.90;;;;;;21094002;28;20411;-48
2023/06/10 05:16:23;;;;;;;55.92;37.17;;;14.20;99.90;;;;;;21093179;28;20341;-54
2023/06/10 05:26:25;;;;;;;54.38;36.85;;;14.30;99.90;;;;;;21092562;28;20034;-49
2023/06/10 05:36:27;;;;;;;54.45;37.25;;;14.50;99.90;;;;;;21074531;28;20039;-50
2023/06/10 05:46:28;;;;;;;46.35;33.83;;;14.70;99.90;;;;;;21091928;28;20032;-52
2023/06/10 05:56:30;;;;;;;47.13;33.83;;;14.90;99.90;;;;;;21091501;28;20031;-48
2023/06/10 06:06:32;;;;;;;35.75;27.45;;;15.40;99.90;;;;;;21089658;28;20055;-44
2023/06/10 06:16:33;;;;;;;31.50;25.27;;;16.00;99.90;;;;;;21076341;28;20032;-50
2023/06/10 06:26:35;;;;;;;37.00;30.00;;;17.00;99.90;;;;;;21076508;28;20111;-50
2023/06/10 06:36:38;;;;;;;40.65;32.40;;;17.70;99.90;;;;;;21074780;28;20056;-44
2023/06/10 06:46:39;;;;;;;38.20;30.02;;;17.70;99.90;;;;;;21075114;28;20032;-51
2023/06/10 06:56:41;;;;;;;39.47;31.55;;;17.40;99.90;;;;;;21074025;28;20385;-47
2023/06/10 07:06:42;;;;;;;32.30;25.85;;;17.10;99.90;;;;;;21073278;28;20554;-49
2023/06/10 07:16:45;;;;;;;37.33;29.30;;;16.90;99.90;;;;;;21072650;28;20028;-49
2023/06/10 07:26:47;;;;;;;41.53;31.10;;;17.00;99.90;;;;;;21071212;28;20044;-47
2023/06/10 07:36:49;;;;;;;36.35;29.45;;;17.30;99.90;;;;;;21069109;28;20172;-50
2023/06/10 07:46:50;;;;;;;36.42;29.33;;;17.20;99.90;;;;;;21069062;28;20037;-44
2023/06/10 07:56:53;;;;;;;37.33;29.85;;;17.00;99.90;;;;;;21069299;28;20036;-54
2023/06/10 08:06:54;;;;;;;40.25;31.70;;;16.50;99.90;;;;;;21064930;28;20027;-48
2023/06/10 08:16:56;;;;;;;35.20;28.42;;;16.20;99.90;;;;;;21067112;28;20048;-48
2023/06/10 08:26:58;;;;;;;27.80;22.85;;;17.10;99.90;;;;;;21064441;28;20400;-49
2023/06/10 08:36:59;;;;;;;33.08;26.60;;;18.30;99.90;;;;;;21065844;28;20040;-48
2023/06/10 08:47:03;;;;;;;33.22;27.30;;;18.40;99.90;;;;;;21063686;28;20082;-48
2023/06/10 08:57:06;;;;;;;30.55;26.85;;;18.20;99.90;;;;;;21065759;28;20082;-51
2023/06/10 09:07:07;;;;;;;29.70;24.77;;;18.60;99.90;;;;;;21064787;28;20444;-48
2023/06/10 09:17:10;;;;;;;29.25;26.13;;;18.80;99.90;;;;;;21065395;28;20043;-50
2023/06/10 09:27:11;;;;;;;28.27;24.45;;;18.90;99.90;;;;;;21064622;28;20036;-49
2023/06/10 09:37:19;;;;;;;28.70;25.60;;;19.10;99.90;;;;;;21064778;28;20503;-43
2023/06/10 09:47:22;;;;;;;26.40;23.27;;;19.10;99.90;;;;;;21073909;28;20093;-49
2023/06/10 09:57:23;;;;;;;32.45;27.10;;;20.50;99.90;;;;;;21060969;28;20085;-53
2023/06/10 10:07:25;;;;;;;34.67;28.10;;;20.20;99.90;;;;;;21076203;28;20028;-45
2023/06/10 10:17:27;;;;;;;35.75;30.60;;;19.40;99.90;;;;;;21077283;28;20036;-50
2023/06/10 10:27:56;;;;;;;31.17;27.02;;;19.10;99.90;;;;;;21076346;28;20028;-45
2023/06/10 10:37:58;;;;;;;28.85;25.67;;;19.10;99.90;;;;;;21065027;28;20044;-55
2023/06/10 10:48:08;;;;;;;27.48;23.85;;;19.70;99.90;;;;;;21074947;28;20461;-45
2023/06/10 10:58:16;;;;;;;26.85;23.75;;;19.70;99.90;;;;;;21073328;28;20501;-45
2023/06/10 11:08:33;;;;;;;28.83;23.77;;;20.20;99.90;;;;;;21056091;28;20490;-53
2023/06/10 11:18:41;;;;;;;27.38;22.88;;;20.50;99.90;;;;;;21069689;28;20093;-43
2023/06/10 11:28:46;;;;;;;29.90;24.17;;;20.20;99.90;;;;;;21072171;28;20452;-52
2023/06/10 11:38:48;;;;;;;26.00;22.42;;;18.90;99.90;;;;;;21071190;28;20059;-50
2023/06/10 11:48:55;;;;;;;27.33;22.25;;;17.80;99.90;;;;;;21070009;28;20546;-49
2023/06/10 11:59:05;;;;;;;22.77;19.63;;;18.30;99.90;;;;;;21069523;28;20477;-52
2023/06/10 12:09:26;;;;;;;23.15;20.60;;;19.00;99.90;;;;;;21067998;28;20040;-53
2023/06/10 12:19:28;;;;;;;24.50;20.13;;;20.00;99.90;;;;;;21067443;28;20051;-50
2023/06/10 12:29:29;;;;;;;19.15;17.15;;;20.20;99.90;;;;;;21067150;28;20032;-51
2023/06/10 12:39:33;;;;;;;26.60;19.63;;;20.00;99.90;;;;;;21066473;28;20052;-49
2023/06/10 12:49:35;;;;;;;22.10;19.27;;;20.00;99.90;;;;;;21065966;28;20032;-48
2023/06/10 12:59:36;;;;;;;26.30;21.10;;;19.30;99.90;;;;;;21066159;28;20127;-53
2023/06/10 13:09:38;;;;;;;27.45;21.15;;;18.70;99.90;;;;;;21065778;28;20047;-50
2023/06/10 13:19:39;;;;;;;26.63;21.65;;;18.60;99.90;;;;;;21071094;28;20028;-50
2023/06/10 13:29:41;;;;;;;26.92;23.38;;;19.00;99.90;;;;;;21081317;28;20032;-50
2023/06/10 13:39:43;;;;;;;25.88;20.75;;;18.90;99.90;;;;;;21080924;28;20113;-51
2023/06/10 13:49:45;;;;;;;21.10;18.95;;;20.70;99.90;;;;;;21080218;28;20491;-52
2023/06/10 13:59:46;;;;;;;15.20;13.20;;;22.70;99.90;;;;;;21079276;28;20039;-54
2023/06/10 14:09:48;;;;;;;16.70;14.73;;;23.10;99.90;;;;;;21076371;28;20048;-54
2023/06/10 14:19:49;;;;;;;17.77;15.88;;;23.60;99.90;;;;;;21077781;28;20036;-51
2023/06/10 14:29:51;;;;;;;17.15;15.35;;;23.90;99.90;;;;;;21075412;28;20024;-50
2023/06/10 14:39:52;;;;;;;19.77;17.75;;;22.20;99.90;;;;;;21075884;28;20107;-52
2023/06/10 14:49:54;;;;;;;22.15;19.23;;;20.80;99.90;;;;;;21075057;28;20036;-49
2023/06/10 14:59:56;;;;;;;19.42;16.88;;;20.60;99.90;;;;;;21074385;28;20458;-48
2023/06/10 15:09:57;;;;;;;16.75;14.93;;;22.50;99.90;;;;;;21055278;28;20046;-51
2023/06/10 15:19:59;;;;;;;18.55;16.00;;;23.50;99.90;;;;;;21072501;28;20069;-54
2023/06/10 15:30:01;;;;;;;18.52;16.48;;;25.90;99.90;;;;;;21072130;28;20380;-54
2023/06/10 15:40:03;;;;;;;19.58;16.30;;;25.00;99.90;;;;;;21071243;28;20429;-53
2023/06/10 15:50:05;;;;;;;16.35;14.50;;;24.80;99.90;;;;;;21070121;28;20043;-48
2023/06/10 16:00:07;;;;;;;8.27;6.97;;;23.30;99.90;;;;;;21069794;28;20081;-53
2023/06/10 16:10:09;;;;;;;6.78;6.07;;;22.10;99.90;;;;;;21066085;28;20024;-50
2023/06/10 16:20:11;;;;;;;11.52;8.25;;;21.00;99.90;;;;;;21068049;28;20530;-44
2023/06/10 16:30:14;;;;;;;15.52;13.13;;;20.00;99.90;;;;;;21068604;28;20086;-49
2023/06/10 16:40:16;;;;;;;22.48;17.35;;;19.50;99.90;;;;;;21067118;28;20052;-54
2023/06/10 16:50:17;;;;;;;29.15;23.55;;;18.80;99.90;;;;;;21066092;28;20036;-48
2023/06/10 17:00:19;;;;;;;35.60;26.02;;;18.10;99.90;;;;;;21065126;28;20024;-49
2023/06/10 17:10:21;;;;;;;32.80;26.05;;;17.80;99.90;;;;;;21062408;28;20489;-53
2023/06/10 17:20:22;;;;;;;37.90;28.23;;;17.70;99.90;;;;;;21047032;28;20095;-52
2023/06/10 17:30:24;;;;;;;31.00;25.17;;;17.10;99.90;;;;;;21064601;28;20040;-48
2023/06/10 17:40:26;;;;;;;30.08;21.80;;;16.50;99.90;;;;;;21062412;28;20109;-48
2023/06/10 17:50:28;;;;;;;29.92;22.35;;;15.90;99.90;;;;;;21064204;28;20032;-53
2023/06/10 18:00:29;;;;;;;31.15;24.38;;;15.40;99.90;;;;;;21063420;28;20028;-47
2023/06/10 18:10:31;;;;;;;37.55;28.35;;;15.20;99.90;;;;;;21075449;28;20417;-44
2023/06/10 18:20:33;;;;;;;52.28;36.72;;;15.30;99.90;;;;;;21077606;28;20465;-53
2023/06/10 18:30:34;;;;;;;52.20;34.58;;;15.40;99.90;;;;;;21073886;28;20130;-48
2023/06/10 18:40:36;;;;;;;45.78;33.40;;;15.70;99.90;;;;;;21077094;28;20040;-48
2023/06/10 18:50:38;;;;;;;43.30;30.35;;;15.80;99.90;;;;;;21076524;28;20461;-49
2023/06/10 19:00:40;;;;;;;4.20;3.80;;;15.70;99.90;;;;;;21073778;28;20051;-48
2023/06/10 19:10:41;;;;;;;1.90;1.80;;;15.10;99.90;;;;;;21069892;28;20035;-50
2023/06/10 19:20:43;;;;;;;9.70;3.50;;;14.50;99.90;;;;;;21071872;28;20028;-46
2023/06/10 19:30:45;;;;;;;9.32;3.90;;;14.10;99.90;;;;;;21071584;28;20032;-42
2023/06/10 19:40:46;;;;;;;5.65;2.92;;;13.20;99.90;;;;;;21069947;28;20048;-42
2023/06/10 19:50:48;;;;;;;4.35;2.88;;;12.30;99.90;;;;;;21052105;28;20032;-49
2023/06/10 20:00:50;;;;;;;3.35;2.22;;;11.60;99.90;;;;;;21069483;28;20028;-44
2023/06/10 20:10:52;;;;;;;2.58;1.80;;;11.30;99.90;;;;;;21068534;28;20054;-51
2023/06/10 20:20:53;;;;;;;3.10;1.52;;;11.10;99.90;;;;;;21069476;28;20036;-49
2023/06/10 20:30:55;;;;;;;2.50;2.15;;;11.10;99.90;;;;;;21065899;28;20515;-49
2023/06/10 20:40:57;;;;;;;5.40;3.38;;;11.10;99.90;;;;;;21062520;28;20104;-48
2023/06/10 20:50:59;;;;;;;6.35;3.75;;;11.20;99.90;;;;;;21066159;28;20433;-47
2023/06/10 21:01:01;;;;;;;3.88;3.10;;;11.20;99.90;;;;;;21065656;28;20085;-50
2023/06/10 21:11:03;;;;;;;5.07;3.60;;;11.30;99.90;;;;;;21065078;28;20054;-49
2023/06/10 21:21:05;;;;;;;5.55;4.18;;;11.30;99.90;;;;;;21063841;28;20024;-43
2023/06/10 21:31:07;;;;;;;3.08;2.60;;;11.30;99.90;;;;;;21064423;28;20527;-47
2023/06/10 21:41:10;;;;;;;3.00;2.67;;;11.30;99.90;;;;;;21071082;28;20032;-49
2023/06/10 21:51:12;;;;;;;3.28;2.90;;;11.40;99.90;;;;;;21079993;28;20040;-52
2023/06/10 22:01:15;;;;;;;4.10;2.92;;;11.50;99.90;;;;;;21079072;28;20054;-47
2023/06/10 22:11:17;;;;;;;5.00;3.08;;;11.50;99.90;;;;;;21078447;28;20373;-54
2023/06/10 22:21:18;;;;;;;3.75;3.10;;;11.40;99.90;;;;;;21077363;28;20102;-50
2023/06/10 22:31:20;;;;;;;3.90;2.20;;;11.20;99.90;;;;;;21075763;28;20032;-48
2023/06/10 22:41:22;;;;;;;2.60;2.30;;;11.00;99.90;;;;;;21076166;28;20048;-48
2023/06/10 22:51:23;;;;;;;5.05;2.17;;;11.00;99.90;;;;;;21074601;28;20024;-49
2023/06/10 23:01:25;;;;;;;3.28;2.22;;;11.00;99.90;;;;;;21074495;28;20032;-49
2023/06/10 23:11:26;;;;;;;4.40;2.03;;;11.00;99.90;;;;;;21073772;28;20028;-48
2023/06/10 23:21:33;;;;;;;2.25;1.83;;;11.20;99.90;;;;;;21073237;28;20040;-44
2023/06/10 23:31:35;;;;;;;2.30;1.90;;;11.50;99.90;;;;;;21071939;28;20032;-49
2023/06/10 23:41:36;;;;;;;2.38;2.10;;;11.50;99.90;;;;;;21071046;28;20044;-48
2023/06/10 23:51:38;;;;;;;2.97;2.30;;;11.50;99.90;;;;;;21070699;28;20035;-43
